Time;durP1;ratioP1;P1;durP2;ratioP2;P2;SDS_P1;SDS_P2;PMS_P1;PMS_P2;Temp;Humidity;BMP_temperature;BMP_pressure;BME280_temperature;BME280_humidity;BME280_pressure;Samples;Min_cycle;Max_cycle;Signal;HPM_P1;HPM_P2
2023/11/15 00:01:48;;;;;;;3.07;0.70;;;;;;;7.01;100.00;101031.44;5021989;28;20496;-86
2023/11/15 00:04:14;;;;;;;7.27;0.90;;;;;;;6.63;100.00;101040.19;5026144;28;20876;-86
2023/11/15 00:06:39;;;;;;;5.37;0.80;;;;;;;6.45;100.00;101066.97;5028122;28;20196;-87
2023/11/15 00:09:06;;;;;;;4.60;1.00;;;;;;;7.16;100.00;101148.13;4987288;28;1198669;-87
2023/11/15 00:11:33;;;;;;;7.53;0.93;;;;;;;8.57;100.00;101372.84;5027916;28;20184;-87
2023/11/15 00:13:59;;;;;;;3.90;0.70;;;;;;;7.20;100.00;101192.97;5038634;28;20836;-86
2023/11/15 00:16:25;;;;;;;5.03;0.83;;;;;;;7.93;100.00;101306.81;5029214;28;20454;-86
2023/11/15 00:18:50;;;;;;;6.20;1.17;;;;;;;6.91;100.00;101164.13;5028365;28;20632;-86
2023/11/15 00:21:16;;;;;;;4.03;1.07;;;;;;;7.80;100.00;101311.84;5022957;28;20199;-88
2023/11/15 00:23:42;;;;;;;2.73;0.67;;;;;;;7.20;100.00;101226.81;5024647;28;20239;-87
2023/11/15 00:26:07;;;;;;;6.27;1.00;;;;;;;8.06;100.00;101417.66;5027656;28;20431;-87
2023/11/15 00:28:33;;;;;;;5.60;1.00;;;;;;;8.84;100.00;101561.47;5028229;28;20326;-87
2023/11/15 00:30:58;;;;;;;3.63;0.80;;;;;;;7.44;100.00;101418.97;5027286;28;20207;-85
2023/11/15 00:33:24;;;;;;;3.70;0.80;;;;;;;6.48;100.00;101266.50;5029807;28;20200;-86
2023/11/15 00:35:49;;;;;;;3.53;0.80;;;;;;;7.51;100.00;101477.03;5029289;28;20295;-86
2023/11/15 00:38:14;;;;;;;6.10;0.90;;;;;;;6.53;100.00;101246.38;5027972;28;20190;-86
2023/11/15 00:40:41;;;;;;;3.00;0.70;;;;;;;7.29;100.00;101475.78;5028166;28;20260;-87
2023/11/15 00:43:07;;;;;;;5.00;0.93;;;;;;;6.81;100.00;101415.94;5026316;28;20204;-87
2023/11/15 00:45:33;;;;;;;5.07;0.83;;;;;;;7.15;100.00;101518.13;5026979;28;20916;-87
2023/11/15 00:47:58;;;;;;;6.10;0.90;;;;;;;7.60;100.00;101582.84;5026728;28;20452;-88
2023/11/15 00:50:24;;;;;;;8.33;0.90;;;;;;;7.10;100.00;101437.72;5029304;28;20226;-86
2023/11/15 00:52:49;;;;;;;3.40;0.90;;;;;;;7.13;100.00;101460.56;5030373;28;20181;-87
2023/11/15 00:55:15;;;;;;;4.10;0.70;;;;;;;6.46;100.00;101423.91;5027782;28;20251;-86
2023/11/15 00:57:40;;;;;;;3.13;0.83;;;;;;;7.35;100.00;101644.13;5030997;28;20967;-87
2023/11/15 01:00:23;;;;;;;5.90;1.17;;;;;;;7.57;100.00;101663.25;5028286;28;20274;-86
2023/11/15 01:02:50;;;;;;;3.50;0.67;;;;;;;8.18;100.00;101691.56;5025214;28;20291;-86
2023/11/15 01:05:16;;;;;;;5.63;1.13;;;;;;;8.07;100.00;101686.50;5022647;28;21095;-87
2023/11/15 01:07:41;;;;;;;4.83;0.80;;;;;;;7.75;100.00;101639.13;5030307;28;20501;-87
2023/11/15 01:10:09;;;;;;;4.43;0.83;;;;;;;6.85;100.00;101554.09;5024746;28;20287;-87
2023/11/15 01:12:35;;;;;;;4.10;0.70;;;;;;;6.26;100.00;101465.91;5022935;28;20207;-86
2023/11/15 01:15:01;;;;;;;3.40;0.87;;;;;;;7.39;100.00;101672.19;5022663;28;20570;-86
2023/11/15 01:17:28;;;;;;;6.17;0.80;;;;;;;6.11;100.00;101478.13;5025793;28;20192;-86
2023/11/15 01:19:53;;;;;;;4.30;0.90;;;;;;;6.67;100.00;101548.00;5027190;28;20609;-87
2023/11/15 01:22:19;;;;;;;6.30;1.10;;;;;;;6.28;100.00;101385.84;5029256;28;20481;-86
2023/11/15 01:24:44;;;;;;;4.70;0.73;;;;;;;8.33;100.00;101715.81;5024530;28;20778;-86
2023/11/15 01:27:11;;;;;;;2.50;0.80;;;;;;;7.16;100.00;101634.50;5028721;28;20216;-85
2023/11/15 01:29:36;;;;;;;5.37;1.00;;;;;;;6.76;100.00;101547.06;5022498;28;20270;-87
2023/11/15 01:32:02;;;;;;;4.30;0.83;;;;;;;6.05;100.00;101462.75;5024161;28;20859;-86
2023/11/15 01:34:28;;;;;;;3.47;0.90;;;;;;;5.54;100.00;101427.00;5024189;28;20211;-87
2023/11/15 01:36:54;;;;;;;4.10;0.70;;;;;;;6.51;100.00;101596.69;5025164;28;20665;-86
2023/11/15 01:39:20;;;;;;;7.93;0.90;;;;;;;6.15;100.00;101585.19;5027050;28;20219;-86
2023/11/15 01:41:50;;;;;;;5.30;0.70;;;;;;;8.01;100.00;101876.84;5027984;28;20438;-85
2023/11/15 01:44:17;;;;;;;3.23;0.70;;;;;;;7.05;100.00;101703.28;5025227;28;20455;-87
2023/11/15 01:46:45;;;;;;;3.50;0.80;;;;;;;6.44;100.00;101663.06;5027149;28;20479;-85
2023/11/15 01:49:11;;;;;;;3.90;1.00;;;;;;;5.14;100.00;101442.34;5025032;28;20447;-87
2023/11/15 01:51:36;;;;;;;3.23;0.70;;;;;;;6.23;100.00;101603.94;5027920;28;20970;-85
2023/11/15 01:54:02;;;;;;;3.90;0.90;;;;;;;7.02;100.00;101672.41;5027104;28;20204;-85
2023/11/15 01:56:28;;;;;;;3.40;0.80;;;;;;;5.66;100.00;101466.53;5024505;28;20192;-86
2023/11/15 01:58:53;;;;;;;7.27;0.70;;;;;;;5.66;100.00;101466.53;5026019;28;20439;-87
2023/11/15 02:01:20;;;;;;;4.20;1.20;;;;;;;7.77;100.00;101802.75;5028143;28;20184;-86
2023/11/15 02:03:45;;;;;;;4.77;0.80;;;;;;;7.00;100.00;101693.94;5020597;28;20245;-87
2023/11/15 02:06:11;;;;;;;4.23;0.80;;;;;;;6.96;100.00;101719.22;5026343;28;20466;-86
2023/11/15 02:08:36;;;;;;;4.83;1.07;;;;;;;7.17;100.00;101707.38;5029325;28;20752;-87
2023/11/15 02:11:03;;;;;;;4.87;0.90;;;;;;;5.81;100.00;101408.25;5031088;28;20279;-86
2023/11/15 02:13:28;;;;;;;5.83;1.10;;;;;;;8.21;100.00;101743.84;5029370;28;20207;-86
2023/11/15 02:15:57;;;;;;;5.50;1.07;;;;;;;7.39;100.00;101581.44;5031281;28;20463;-87
2023/11/15 02:18:23;;;;;;;4.93;0.97;;;;;;;7.16;100.00;101493.09;5028281;28;20238;-86
2023/11/15 02:20:49;;;;;;;3.47;0.90;;;;;;;7.88;100.00;101594.13;5029841;28;20455;-86
2023/11/15 02:23:19;;;;;;;4.13;1.00;;;;;;;7.76;100.00;101668.38;5028412;28;20566;-86
2023/11/15 02:25:44;;;;;;;4.80;0.90;;;;;;;7.26;100.00;101490.28;5031841;28;20931;-87
2023/11/15 02:28:10;;;;;;;11.17;1.10;;;;;;;7.16;100.00;101511.78;5030922;28;20442;-86
2023/11/15 02:30:35;;;;;;;3.03;1.10;;;;;;;6.27;100.00;101354.84;5025855;28;20191;-86
2023/11/15 02:33:00;;;;;;;3.00;0.90;;;;;;;7.81;100.00;101609.13;5027024;28;20253;-85
2023/11/15 02:35:27;;;;;;;3.33;0.83;;;;;;;7.82;100.00;101592.94;5032473;28;20511;-87
2023/11/15 02:37:52;;;;;;;5.00;0.80;;;;;;;6.95;100.00;101450.84;5029393;28;20862;-86
2023/11/15 02:40:18;;;;;;;3.33;0.90;;;;;;;6.99;100.00;101428.16;5042857;28;20443;-86
2023/11/15 02:42:43;;;;;;;4.60;0.90;;;;;;;7.87;100.00;101555.91;5027951;28;20564;-86
2023/11/15 02:45:10;;;;;;;2.73;0.77;;;;;;;7.72;100.00;101498.75;5029387;28;20195;-86
2023/11/15 02:47:35;;;;;;;4.10;1.37;;;;;;;7.98;100.00;101548.56;5031188;28;20195;-87
2023/11/15 02:50:01;;;;;;;4.87;1.60;;;;;;;6.75;100.00;101478.72;5027914;28;20436;-86
2023/11/15 02:52:27;;;;;;;5.30;1.50;;;;;;;6.94;100.00;101520.31;5028570;28;20181;-87
2023/11/15 02:54:54;;;;;;;6.40;1.10;;;;;;;7.07;100.00;101527.91;5028894;28;20196;-87
2023/11/15 02:57:20;;;;;;;6.10;1.40;;;;;;;6.87;100.00;101556.63;5030956;28;20185;-85
2023/11/15 02:59:45;;;;;;;3.80;1.00;;;;;;;6.88;100.00;101528.97;5028055;28;21018;-86
2023/11/15 03:02:10;;;;;;;3.50;1.00;;;;;;;6.25;100.00;101471.38;5029828;28;20176;-86
2023/11/15 03:04:36;;;;;;;4.30;0.90;;;;;;;6.44;100.00;101478.38;5028688;28;20326;-87
2023/11/15 03:07:02;;;;;;;5.43;0.90;;;;;;;5.65;100.00;101339.75;5027386;28;20181;-86
2023/11/15 03:09:27;;;;;;;4.80;0.80;;;;;;;6.54;100.00;101495.09;5027179;28;20185;-87
2023/11/15 03:11:53;;;;;;;2.77;0.80;;;;;;;6.50;100.00;101501.72;5028075;28;20669;-86
2023/11/15 03:14:18;;;;;;;3.13;0.90;;;;;;;7.66;100.00;101611.56;5029527;28;20207;-86
2023/11/15 03:16:44;;;;;;;4.13;1.00;;;;;;;6.11;100.00;101360.94;5028475;28;20189;-86
2023/11/15 03:19:09;;;;;;;6.33;0.87;;;;;;;6.98;100.00;101495.03;5026549;28;20278;-86
2023/11/15 03:21:35;;;;;;;3.57;1.00;;;;;;;7.24;100.00;101554.50;5032531;28;20180;-87
2023/11/15 03:24:00;;;;;;;3.23;0.80;;;;;;;6.56;100.00;101533.06;5029612;28;20270;-87
2023/11/15 03:26:26;;;;;;;4.33;1.10;;;;;;;5.75;100.00;101416.03;5031860;28;20180;-87
2023/11/15 03:28:51;;;;;;;4.30;1.00;;;;;;;5.88;100.00;101502.53;5031041;28;20203;-85
2023/11/15 03:31:17;;;;;;;5.03;1.00;;;;;;;6.94;100.00;101635.88;5031056;28;20181;-85
2023/11/15 03:33:50;;;;;;;4.93;1.00;;;;;;;6.87;100.00;101655.31;5028640;28;20205;-86
2023/11/15 03:36:16;;;;;;;3.97;0.80;;;;;;;4.96;100.00;101394.44;5027044;28;20206;-86
2023/11/15 03:38:41;;;;;;;2.50;0.70;;;;;;;6.73;100.00;101635.34;5028241;28;20467;-86
2023/11/15 03:41:07;;;;;;;3.60;0.90;;;;;;;6.38;100.00;101513.63;5028663;28;20276;-86
2023/11/15 03:43:32;;;;;;;2.93;0.83;;;;;;;5.60;100.00;101477.78;5026748;28;20586;-86
2023/11/15 03:45:59;;;;;;;2.90;0.77;;;;;;;7.27;100.00;101677.94;5030914;28;20211;-85
2023/11/15 03:48:26;;;;;;;3.33;0.90;;;;;;;6.64;100.00;101533.13;5030504;28;20262;-86
2023/11/15 03:50:51;;;;;;;5.33;1.27;;;;;;;6.50;100.00;101585.16;5042794;28;20845;-87
2023/11/15 03:53:17;;;;;;;4.57;0.80;;;;;;;6.73;100.00;101649.50;5028237;28;20459;-87
2023/11/15 03:55:42;;;;;;;5.27;1.10;;;;;;;5.77;100.00;101441.50;5029419;28;20196;-87
2023/11/15 03:58:08;;;;;;;5.60;1.30;;;;;;;6.84;100.00;101691.13;5024696;28;20180;-86
2023/11/15 04:00:33;;;;;;;3.90;1.07;;;;;;;6.77;100.00;101722.88;5027826;28;20188;-85
2023/11/15 04:02:59;;;;;;;3.90;1.20;;;;;;;6.17;100.00;101602.69;5026007;28;20189;-86
2023/11/15 04:05:27;;;;;;;3.90;0.80;;;;;;;6.21;100.00;101620.03;5031111;28;20197;-86
2023/11/15 04:07:53;;;;;;;5.50;0.90;;;;;;;6.81;100.00;101722.59;5026545;28;20510;-87
2023/11/15 04:10:19;;;;;;;2.97;0.90;;;;;;;5.22;100.00;101466.38;5026223;28;20468;-85
2023/11/15 04:12:44;;;;;;;4.83;0.90;;;;;;;6.31;100.00;101633.31;5027383;28;20316;-87
2023/11/15 04:15:10;;;;;;;4.50;0.90;;;;;;;4.90;100.00;101426.13;5028780;28;20204;-86
2023/11/15 04:17:36;;;;;;;4.37;1.00;;;;;;;6.15;100.00;101649.13;5026677;28;20291;-87
2023/11/15 04:20:03;;;;;;;3.93;0.80;;;;;;;6.03;100.00;101633.34;5026188;28;20734;-87
2023/11/15 04:22:29;;;;;;;3.50;0.80;;;;;;;7.39;100.00;101744.25;5027128;28;20462;-87
2023/11/15 04:24:54;;;;;;;4.60;0.97;;;;;;;7.62;100.00;101712.53;5027835;28;20455;-87
2023/11/15 04:27:19;;;;;;;5.70;1.03;;;;;;;7.47;100.00;101666.06;5041903;28;20177;-87
2023/11/15 04:29:46;;;;;;;3.03;0.90;;;;;;;8.58;100.00;101878.06;5027451;28;20632;-86
2023/11/15 04:32:11;;;;;;;4.43;1.00;;;;;;;8.13;100.00;101752.69;5025081;28;20185;-87
2023/11/15 04:34:36;;;;;;;4.60;1.20;;;;;;;6.75;100.00;101553.38;5026250;28;20834;-85
2023/11/15 04:37:02;;;;;;;3.07;1.00;;;;;;;6.39;100.00;101502.81;5028558;28;20556;-87
2023/11/15 04:39:28;;;;;;;4.70;0.80;;;;;;;6.54;100.00;101492.44;5029071;28;20226;-87
2023/11/15 04:41:53;;;;;;;5.43;1.20;;;;;;;7.67;100.00;101672.84;5024665;28;20189;-87
2023/11/15 04:44:20;;;;;;;4.30;0.90;;;;;;;6.89;100.00;101547.47;5027259;28;20200;-87
2023/11/15 04:46:46;;;;;;;5.00;1.00;;;;;;;7.63;100.00;101708.84;5023546;28;20198;-86
2023/11/15 04:49:12;;;;;;;7.03;1.10;;;;;;;6.29;100.00;101534.03;5025446;28;21105;-87
2023/11/15 04:51:38;;;;;;;5.10;1.20;;;;;;;6.14;100.00;101515.09;5028489;28;20944;-87
2023/11/15 04:54:03;;;;;;;4.60;1.10;;;;;;;6.92;100.00;101650.34;5037559;28;20482;-86
2023/11/15 04:56:29;;;;;;;5.90;1.13;;;;;;;7.62;100.00;101760.59;5028241;28;20267;-86
2023/11/15 04:58:54;;;;;;;4.63;1.00;;;;;;;7.01;100.00;101676.91;5024762;28;20223;-87
2023/11/15 05:01:20;;;;;;;3.87;1.20;;;;;;;6.30;100.00;101568.50;5027810;28;20202;-86
2023/11/15 05:03:46;;;;;;;4.77;1.33;;;;;;;7.14;100.00;101718.34;5028855;28;20204;-86
2023/11/15 05:06:11;;;;;;;4.43;1.00;;;;;;;7.90;100.00;101817.38;5029157;28;20188;-86
2023/11/15 05:08:37;;;;;;;3.93;1.00;;;;;;;6.51;100.00;101618.03;5026758;28;20449;-86
2023/11/15 05:11:03;;;;;;;4.87;1.27;;;;;;;6.32;100.00;101555.03;5026240;28;20561;-86
2023/11/15 05:13:29;;;;;;;6.40;1.10;;;;;;;7.79;100.00;101811.44;5029096;28;20203;-87
2023/11/15 05:15:56;;;;;;;3.87;1.00;;;;;;;8.13;100.00;101846.22;5028222;28;20213;-87
2023/11/15 05:18:21;;;;;;;3.70;1.00;;;;;;;7.11;100.00;101686.66;5030537;28;20180;-87
2023/11/15 05:20:47;;;;;;;3.50;1.00;;;;;;;7.71;100.00;101801.53;5025761;28;21221;-87
2023/11/15 05:23:12;;;;;;;4.37;1.10;;;;;;;7.16;100.00;101751.06;5025856;28;20250;-86
2023/11/15 05:25:37;;;;;;;3.63;1.17;;;;;;;6.46;100.00;101610.47;5026923;28;20192;-87
2023/11/15 05:28:05;;;;;;;5.30;1.17;;;;;;;6.72;100.00;101673.69;5029438;28;20184;-87
2023/11/15 05:30:30;;;;;;;6.60;1.10;;;;;;;8.30;100.00;101925.50;5028097;28;20189;-87
2023/11/15 05:32:57;;;;;;;2.83;1.00;;;;;;;6.55;100.00;101643.38;5022144;28;20454;-87
2023/11/15 05:35:22;;;;;;;4.47;1.13;;;;;;;7.21;100.00;101749.63;5024965;28;20196;-87
2023/11/15 05:37:48;;;;;;;4.10;1.20;;;;;;;7.23;100.00;101870.38;5028140;28;20446;-86
2023/11/15 05:40:15;;;;;;;3.63;1.20;;;;;;;7.02;100.00;101857.31;5028664;28;20445;-86
2023/11/15 05:42:41;;;;;;;6.10;1.33;;;;;;;8.12;100.00;102012.88;5030775;28;20232;-88
2023/11/15 05:45:10;;;;;;;6.03;1.40;;;;;;;5.81;100.00;101644.38;5030160;28;20434;-85
2023/11/15 05:47:37;;;;;;;3.80;1.00;;;;;;;6.26;100.00;101702.19;5042832;28;20184;-86
2023/11/15 05:50:10;;;;;;;8.70;1.27;;;;;;;6.44;100.00;101799.00;5032066;28;20942;-86
2023/11/15 05:52:39;;;;;;;3.63;0.90;;;;;;;6.09;100.00;101701.16;5031845;28;20463;-84
2023/11/15 05:55:06;;;;;;;7.07;1.30;;;;;;;5.89;100.00;101740.31;5042259;28;20828;-86
2023/11/15 05:57:32;;;;;;;4.87;1.47;;;;;;;6.43;100.00;101852.47;5028742;28;20459;-86
2023/11/15 05:59:58;;;;;;;5.17;2.10;;;;;;;6.85;100.00;101923.97;5029056;28;20439;-86
2023/11/15 06:02:24;;;;;;;4.70;1.60;;;;;;;6.63;100.00;101946.53;5031173;28;20441;-86
2023/11/15 06:04:52;;;;;;;4.83;1.60;;;;;;;6.64;100.00;101897.53;5030249;28;20450;-88
2023/11/15 06:07:18;;;;;;;8.80;1.50;;;;;;;4.94;100.00;101661.44;5030820;28;20220;-86
2023/11/15 06:09:45;;;;;;;4.83;1.50;;;;;;;6.39;100.00;101907.84;5032464;28;20435;-86
2023/11/15 06:12:11;;;;;;;6.13;1.87;;;;;;;5.09;100.00;101760.22;5029075;28;20193;-87
2023/11/15 06:14:36;;;;;;;4.80;2.03;;;;;;;4.99;100.00;101699.91;5030633;28;20489;-86
2023/11/15 06:17:02;;;;;;;6.67;2.27;;;;;;;5.29;100.00;101755.72;5034505;28;20176;-87
2023/11/15 06:19:27;;;;;;;4.23;1.60;;;;;;;4.75;100.00;101675.59;5032821;28;20184;-86
2023/11/15 06:21:53;;;;;;;4.97;1.87;;;;;;;6.65;100.00;101960.53;5028853;28;20185;-87
2023/11/15 06:24:18;;;;;;;4.03;1.20;;;;;;;4.85;100.00;101654.31;5028378;28;20196;-86
2023/11/15 06:26:45;;;;;;;3.23;1.50;;;;;;;5.53;100.00;101821.81;5031950;28;20188;-86
2023/11/15 06:29:11;;;;;;;5.20;1.40;;;;;;;5.53;100.00;101822.66;5032276;28;20435;-86
2023/11/15 06:31:36;;;;;;;6.03;2.20;;;;;;;5.38;100.00;101776.16;5027395;28;20435;-86
2023/11/15 06:34:05;;;;;;;7.27;3.33;;;;;;;4.98;100.00;101756.75;5028157;28;20212;-85
2023/11/15 06:36:39;;;;;;;8.47;4.23;;;;;;;6.46;100.00;101972.09;5029993;28;20188;-87
2023/11/15 06:39:10;;;;;;;6.97;3.90;;;;;;;6.40;100.00;101952.19;5027158;28;20442;-84
2023/11/15 06:41:38;;;;;;;8.10;4.20;;;;;;;6.28;100.00;101948.03;5032614;28;21242;-87
2023/11/15 06:44:05;;;;;;;5.13;3.13;;;;;;;6.18;100.00;101939.19;5027948;28;20470;-85
2023/11/15 06:46:31;;;;;;;6.70;2.83;;;;;;;5.14;100.00;101789.91;5029725;28;20449;-87
2023/11/15 06:48:57;;;;;;;5.07;2.73;;;;;;;6.52;100.00;101998.19;5031300;28;20439;-86
2023/11/15 06:51:23;;;;;;;11.83;3.60;;;;;;;5.01;100.00;101787.53;5031203;28;20450;-85
2023/11/15 06:53:49;;;;;;;8.17;3.97;;;;;;;5.11;100.00;101835.41;5027730;28;20326;-86
2023/11/15 06:56:14;;;;;;;10.60;4.37;;;;;;;5.28;100.00;101852.50;5030200;28;20595;-87
2023/11/15 06:58:40;;;;;;;7.80;4.10;;;;;;;5.44;100.00;101866.94;5028306;28;20184;-86
2023/11/15 07:01:07;;;;;;;7.23;3.10;;;;;;;4.92;100.00;101810.47;5030307;28;20196;-85
2023/11/15 07:03:32;;;;;;;11.97;2.40;;;;;;;6.11;100.00;101946.91;5029187;28;20224;-85
2023/11/15 07:05:58;;;;;;;4.87;1.93;;;;;;;5.93;100.00;101922.84;5028171;28;20470;-86
2023/11/15 07:08:23;;;;;;;5.20;1.80;;;;;;;4.95;100.00;101796.06;5028982;28;20302;-86
2023/11/15 07:10:49;;;;;;;3.90;1.57;;;;;;;6.07;100.00;101922.38;5026867;28;20192;-86
2023/11/15 07:13:16;;;;;;;5.53;1.60;;;;;;;5.00;100.00;101727.34;5034427;28;20219;-87
2023/11/15 07:15:44;;;;;;;5.30;2.03;;;;;;;7.23;100.00;102107.03;5031936;28;20201;-86
2023/11/15 07:18:10;;;;;;;5.90;2.13;;;;;;;5.43;100.00;101883.84;5025990;28;20486;-86
2023/11/15 07:20:37;;;;;;;4.77;1.90;;;;;;;3.97;100.00;101773.69;5031869;28;20442;-85
2023/11/15 07:23:03;;;;;;;6.37;1.73;;;;;;;5.49;100.00;101980.06;5056792;28;20275;-85
2023/11/15 07:25:29;;;;;;;4.83;1.60;;;;;;;5.60;100.00;101948.03;5032596;28;20446;-86
2023/11/15 07:27:56;;;;;;;4.60;1.60;;;;;;;4.43;100.00;101772.34;5029422;28;20184;-86
2023/11/15 07:30:22;;;;;;;5.90;1.80;;;;;;;4.09;100.00;101697.44;5032448;28;20427;-87
2023/11/15 07:32:48;;;;;;;5.73;1.90;;;;;;;5.30;100.00;101893.09;5027853;28;20450;-85
2023/11/15 07:35:14;;;;;;;5.00;1.70;;;;;;;5.66;100.00;101944.78;5031130;28;20238;-86
2023/11/15 07:37:40;;;;;;;7.13;2.33;;;;;;;5.20;100.00;101861.16;5030648;28;20925;-86
2023/11/15 07:40:12;;;;;;;4.67;2.53;;;;;;;6.25;100.00;102036.19;5031051;28;20180;-86
2023/11/15 07:42:38;;;;;;;4.27;2.20;;;;;;;5.82;100.00;101973.53;5031117;28;20423;-87
2023/11/15 07:45:04;;;;;;;4.77;1.93;;;;;;;6.38;100.00;102012.78;5029220;28;20530;-87
2023/11/15 07:47:34;;;;;;;6.77;2.23;;;;;;;6.30;100.00;102047.28;5030988;28;20581;-86
2023/11/15 07:50:02;;;;;;;4.73;2.20;;;;;;;6.40;100.00;102079.28;5028094;28;20195;-86
2023/11/15 07:52:28;;;;;;;5.37;1.73;;;;;;;4.52;100.00;101747.59;5027869;28;20443;-87
2023/11/15 07:54:54;;;;;;;6.13;2.43;;;;;;;5.33;100.00;101903.47;5028300;28;20494;-88
2023/11/15 07:57:21;;;;;;;13.33;2.60;;;;;;;6.44;100.00;102046.03;5030656;28;20462;-88
2023/11/15 07:59:47;;;;;;;6.10;3.00;;;;;;;4.92;100.00;101772.41;5029264;28;20192;-87
2023/11/15 08:02:12;;;;;;;6.60;2.50;;;;;;;5.04;100.00;101827.13;5029342;28;20450;-87
2023/11/15 08:04:38;;;;;;;8.10;3.30;;;;;;;5.04;100.00;101805.88;5028663;28;20973;-87
2023/11/15 08:07:04;;;;;;;6.43;3.33;;;;;;;4.85;100.00;101739.38;5030355;28;20196;-85
2023/11/15 08:09:32;;;;;;;7.10;4.00;;;;;;;5.38;100.00;101810.75;5040761;28;20203;-86
2023/11/15 08:12:01;;;;;;;14.30;5.43;;;;;;;5.13;100.00;101830.78;5026694;28;20272;-87
2023/11/15 08:14:29;;;;;;;13.83;7.47;;;;;;;5.66;100.00;101940.31;5025208;28;21088;-86
2023/11/15 08:16:54;;;;;;;15.27;11.50;;;;;;;6.42;100.00;102029.31;5031040;28;20431;-84
2023/11/15 08:19:20;;;;;;;16.70;13.20;;;;;;;5.85;100.00;101958.13;5036993;28;20446;-85
2023/11/15 08:21:47;;;;;;;16.50;12.13;;;;;;;6.57;100.00;102025.25;5031376;28;20197;-84
2023/11/15 08:24:20;;;;;;;20.77;10.57;;;;;;;4.94;100.00;101768.63;5028975;28;20204;-86
2023/11/15 08:26:46;;;;;;;14.27;9.73;;;;;;;6.71;100.00;102079.94;5032151;28;20459;-85
2023/11/15 08:29:11;;;;;;;13.53;8.20;;;;;;;5.39;100.00;101847.03;5027633;28;20520;-87
2023/11/15 08:31:38;;;;;;;15.43;7.50;;;;;;;6.73;100.00;102069.97;5029871;28;20219;-86
2023/11/15 08:34:04;;;;;;;11.43;7.80;;;;;;;6.54;100.00;102082.34;5025710;28;20605;-87
2023/11/15 08:36:29;;;;;;;17.80;9.67;;;;;;;7.28;100.00;102159.97;5028399;28;20454;-86
2023/11/15 08:38:55;;;;;;;20.50;9.70;;;;;;;6.79;100.00;102144.06;5026811;28;20623;-86
2023/11/15 08:41:20;;;;;;;18.97;9.37;;;;;;;7.22;100.00;102134.72;5028601;28;21013;-87
2023/11/15 08:43:46;;;;;;;14.53;8.30;;;;;;;6.95;100.00;102123.00;5028113;28;20211;-85
2023/11/15 08:46:16;;;;;;;13.53;8.57;;;;;;;8.31;100.00;102336.19;5040531;22;20263;-67
2023/11/15 08:48:41;;;;;;;14.00;9.07;;;;;;;8.26;100.00;102335.78;5033911;28;20720;-67
2023/11/15 08:51:07;;;;;;;16.73;8.07;;;;;;;8.35;100.00;102350.09;5034338;28;20934;-67
2023/11/15 08:53:32;;;;;;;13.43;8.00;;;;;;;8.29;100.00;102356.03;5030615;28;20184;-67
2023/11/15 08:55:58;;;;;;;11.50;8.63;;;;;;;8.49;100.00;102341.63;5033755;28;20580;-67
2023/11/15 08:58:27;;;;;;;14.60;8.33;;;;;;;8.65;100.00;102381.13;5031025;28;20188;-67
2023/11/15 09:00:57;;;;;;;13.23;9.07;;;;;;;8.11;100.00;102353.31;5033646;28;20188;-68
2023/11/15 09:03:23;;;;;;;13.70;8.10;;;;;;;8.35;100.00;102403.59;5029798;28;20526;-67
2023/11/15 09:05:49;;;;;;;12.30;7.50;;;;;;;8.56;100.00;102440.81;5032272;28;20956;-67
2023/11/15 09:08:14;;;;;;;10.80;7.37;;;;;;;8.72;100.00;102504.44;5032281;28;20446;-68
2023/11/15 09:10:40;;;;;;;10.47;7.30;;;;;;;8.80;100.00;102566.91;5030538;28;20317;-68
2023/11/15 09:13:08;;;;;;;11.20;7.07;;;;;;;8.95;100.00;102622.66;5031547;28;20686;-67
2023/11/15 09:15:36;;;;;;;9.57;5.73;;;;;;;8.67;100.00;102590.44;5031239;28;20462;-67
2023/11/15 09:18:06;;;;;;;10.17;6.27;;;;;;;9.17;100.00;102611.63;5031260;28;20441;-67
2023/11/15 09:20:32;;;;;;;9.67;5.57;;;;;;;8.89;100.00;102602.66;5032069;28;20435;-67
2023/11/15 09:22:58;;;;;;;11.50;4.70;;;;;;;8.56;100.00;102537.97;5032778;28;20453;-67
2023/11/15 09:25:26;;;;;;;6.03;3.40;;;;;;;9.09;100.00;102565.16;5034043;28;20434;-67
2023/11/15 09:27:54;;;;;;;7.30;3.80;;;;;;;8.95;100.00;102548.56;5033197;28;20180;-68
2023/11/15 09:30:25;;;;;;;7.97;3.57;;;;;;;8.90;100.00;102491.13;5030573;28;20430;-67
2023/11/15 09:32:51;;;;;;;9.00;4.53;;;;;;;8.77;100.00;102513.69;5031038;28;21011;-67
2023/11/15 09:35:23;;;;;;;9.10;3.67;;;;;;;9.15;100.00;102500.31;5028907;28;20462;-67
2023/11/15 09:37:52;;;;;;;5.93;3.80;;;;;;;8.98;100.00;102504.59;5030410;28;20463;-67
2023/11/15 09:40:21;;;;;;;7.43;4.07;;;;;;;9.31;100.00;102495.13;5031146;28;20465;-67
2023/11/15 09:42:52;;;;;;;8.13;4.00;;;;;;;9.23;100.00;102482.50;5027549;28;20549;-67
2023/11/15 09:45:19;;;;;;;7.83;4.03;;;;;;;9.41;100.00;102462.94;5027851;28;20449;-67
2023/11/15 09:47:47;;;;;;;6.77;4.13;;;;;;;9.61;100.00;102453.78;5033003;28;20445;-67
2023/11/15 09:50:15;;;;;;;5.70;4.20;;;;;;;9.10;100.00;102422.28;5033814;28;20434;-67
2023/11/15 09:52:41;;;;;;;6.40;3.67;;;;;;;9.17;100.00;102384.06;5030543;28;20489;-67
2023/11/15 09:55:07;;;;;;;8.43;4.17;;;;;;;8.79;100.00;102383.31;5033983;28;20470;-67
2023/11/15 09:57:36;;;;;;;5.57;3.37;;;;;;;9.28;100.00;102391.00;5027577;28;20439;-67
2023/11/15 10:00:06;;;;;;;6.70;4.47;;;;;;;9.48;100.00;102438.06;5028520;28;20522;-68
2023/11/15 10:02:32;;;;;;;7.93;3.80;;;;;;;8.98;100.00;102403.75;5026556;28;20508;-67
2023/11/15 10:05:30;;;;;;;12.03;3.50;;;;;;;9.49;100.00;102426.38;5028797;28;20443;-67
2023/11/15 10:08:15;;;;;;;8.97;3.80;;;;;;;9.37;100.00;102424.06;5031270;28;20897;-67
2023/11/15 10:10:44;;;;;;;7.50;3.70;;;;;;;9.31;100.00;102425.50;5030220;28;20427;-67
2023/11/15 10:13:19;;;;;;;7.10;3.50;;;;;;;9.45;100.00;102416.09;5028392;28;20512;-67
2023/11/15 10:15:46;;;;;;;5.87;3.77;;;;;;;9.16;100.00;102406.44;5032568;28;20828;-67
2023/11/15 10:18:18;;;;;;;7.87;3.93;;;;;;;9.38;100.00;102398.97;5032762;28;20980;-67
2023/11/15 10:20:44;;;;;;;6.73;3.20;;;;;;;9.68;100.00;102395.88;5032329;28;20445;-68
2023/11/15 10:23:13;;;;;;;5.67;3.37;;;;;;;9.47;100.00;102385.50;5028715;28;21309;-67
2023/11/15 10:25:51;;;;;;;7.10;3.97;;;;;;;9.01;100.00;102346.41;5026989;28;20433;-67
2023/11/15 10:28:17;;;;;;;6.77;3.50;;;;;;;9.04;100.00;102380.88;5035265;28;20437;-67
2023/11/15 10:30:43;;;;;;;5.83;4.00;;;;;;;9.11;100.00;102383.78;5035184;28;20457;-67
2023/11/15 10:33:10;;;;;;;5.90;3.07;;;;;;;9.44;100.00;102382.28;5035990;28;20462;-67
2023/11/15 10:35:40;;;;;;;6.37;3.37;;;;;;;9.38;100.00;102383.75;5033230;28;20458;-67
2023/11/15 10:38:14;;;;;;;6.57;3.87;;;;;;;9.30;100.00;102372.94;5034683;28;20452;-67
2023/11/15 10:40:43;;;;;;;5.20;3.30;;;;;;;9.38;100.00;102374.88;5033961;28;20466;-67
2023/11/15 10:43:12;;;;;;;5.00;3.40;;;;;;;9.28;100.00;102382.97;5034408;28;21040;-67
2023/11/15 10:45:40;;;;;;;5.40;3.60;;;;;;;9.09;100.00;102357.19;5040788;28;20520;-67
2023/11/15 10:48:11;;;;;;;6.73;3.47;;;;;;;9.28;100.00;102374.94;5034354;28;20446;-67
2023/11/15 10:50:44;;;;;;;9.77;3.80;;;;;;;9.13;100.00;102361.25;5036541;28;20437;-67
2023/11/15 10:53:11;;;;;;;8.90;3.90;;;;;;;9.24;100.00;102385.13;5031964;28;21015;-67
2023/11/15 10:55:40;;;;;;;12.33;3.90;;;;;;;9.19;100.00;102392.75;5037068;28;20480;-67
2023/11/15 10:58:08;;;;;;;10.83;4.47;;;;;;;9.13;100.00;102368.44;5036685;28;20442;-67
2023/11/15 11:00:35;;;;;;;9.83;3.70;;;;;;;9.31;100.00;102390.69;5038017;28;20921;-67
2023/11/15 11:03:06;;;;;;;8.73;3.40;;;;;;;9.18;100.00;102340.22;5034605;28;20445;-67
2023/11/15 11:06:08;;;;;;;8.23;3.20;;;;;;;9.23;100.00;102386.13;5035390;28;20468;-67
2023/11/15 11:08:48;;;;;;;7.33;2.83;;;;;;;9.14;100.00;102364.75;4999168;28;20511;-67
2023/11/15 11:11:25;;;;;;;7.87;3.10;;;;;;;9.08;100.00;102376.91;5036476;28;20441;-68
2023/11/15 11:14:20;;;;;;;9.00;2.93;;;;;;;9.23;100.00;102386.13;5033306;28;20854;-68
2023/11/15 11:16:49;;;;;;;9.93;3.67;;;;;;;9.17;100.00;102389.41;5039881;28;20430;-67
2023/11/15 11:19:22;;;;;;;8.53;2.80;;;;;;;9.24;100.00;102382.44;5031665;28;20485;-67
2023/11/15 11:22:08;;;;;;;8.13;3.70;;;;;;;9.22;100.00;102396.97;5039290;28;20940;-67
2023/11/15 11:24:42;;;;;;;14.43;3.33;;;;;;;9.25;100.00;102402.00;5034536;28;20427;-67